createdAt,value
2019-03-19T00:01:40.377Z,5.93
2019-03-19T00:04:11.281Z,7.50
2019-03-19T00:06:42.048Z,9.83
2019-03-19T00:09:12.893Z,10.23
2019-03-19T00:11:43.667Z,11.67
2019-03-19T00:14:14.469Z,9.20
2019-03-19T00:16:45.470Z,8.13
2019-03-19T00:19:16.330Z,7.50
2019-03-19T00:21:47.943Z,9.83
2019-03-19T00:24:18.844Z,7.07
2019-03-19T00:26:49.690Z,11.63
2019-03-19T00:29:20.677Z,8.67
2019-03-19T00:31:51.466Z,9.17
2019-03-19T00:34:22.262Z,19.83
2019-03-19T00:36:53.127Z,6.47
2019-03-19T00:39:25.140Z,11.97
2019-03-19T00:41:55.945Z,5.10
2019-03-19T00:44:26.706Z,10.07
2019-03-19T00:46:58.695Z,16.60
2019-03-19T00:49:29.516Z,6.47
2019-03-19T00:52:00.400Z,10.10
2019-03-19T00:54:31.616Z,10.53
2019-03-19T00:57:04.000Z,8.73
2019-03-19T00:59:35.278Z,9.80
2019-03-19T01:02:06.092Z,7.87
2019-03-19T01:04:36.934Z,6.73
2019-03-19T01:07:07.903Z,9.30
2019-03-19T01:09:38.822Z,9.10
2019-03-19T01:12:09.596Z,9.77
2019-03-19T01:14:40.366Z,9.57
2019-03-19T01:17:11.302Z,5.70
2019-03-19T01:19:42.092Z,8.47
2019-03-19T01:22:12.901Z,10.40
2019-03-19T01:24:43.866Z,5.00
2019-03-19T01:27:14.781Z,6.80
2019-03-19T01:29:45.567Z,9.47
2019-03-19T01:32:16.351Z,7.43
2019-03-19T01:34:47.168Z,9.53
2019-03-19T01:37:17.971Z,5.30
2019-03-19T01:39:48.901Z,10.33
2019-03-19T01:42:19.701Z,7.07
2019-03-19T01:44:50.568Z,9.73
2019-03-19T01:47:21.363Z,7.00
2019-03-19T01:49:52.264Z,11.30
2019-03-19T01:52:23.109Z,7.67
2019-03-19T01:54:55.082Z,10.20
2019-03-19T01:57:25.986Z,12.70
2019-03-19T01:59:56.768Z,6.87
2019-03-19T02:02:27.570Z,6.20
2019-03-19T02:04:58.353Z,7.30
2019-03-19T02:07:29.304Z,5.40
2019-03-19T02:10:00.424Z,7.97
2019-03-19T02:12:31.244Z,6.43
2019-03-19T02:15:02.078Z,9.37
2019-03-19T02:17:35.843Z,7.43
2019-03-19T02:20:08.235Z,8.03
2019-03-19T02:22:39.322Z,8.53
2019-03-19T02:25:10.674Z,7.60
2019-03-19T02:27:41.516Z,9.93
2019-03-19T02:30:13.000Z,6.53
2019-03-19T02:32:43.851Z,9.20
2019-03-19T02:35:14.722Z,12.03
2019-03-19T02:37:45.607Z,7.13
2019-03-19T02:40:18.157Z,21.40
2019-03-19T02:42:48.983Z,8.93
2019-03-19T02:45:19.894Z,15.37
2019-03-19T02:47:50.762Z,10.43
2019-03-19T02:50:22.989Z,8.13
2019-03-19T02:52:53.855Z,8.07
2019-03-19T02:55:26.095Z,13.60
2019-03-19T02:57:57.096Z,9.40
2019-03-19T03:00:27.860Z,15.60
2019-03-19T03:02:58.713Z,11.13
2019-03-19T03:05:29.510Z,7.87
2019-03-19T03:08:00.270Z,11.53
2019-03-19T03:10:31.017Z,11.27
2019-03-19T03:13:01.781Z,17.37
2019-03-19T03:15:32.565Z,12.57
2019-03-19T03:18:03.809Z,9.10
2019-03-19T03:20:34.638Z,9.53
2019-03-19T03:23:05.693Z,10.83
2019-03-19T03:25:36.568Z,16.80
2019-03-19T03:28:07.377Z,12.57
2019-03-19T03:30:38.215Z,13.80
2019-03-19T03:33:10.587Z,16.83
2019-03-19T03:35:41.396Z,12.60
2019-03-19T03:38:12.304Z,14.07
2019-03-19T03:40:43.395Z,13.93
2019-03-19T03:43:14.218Z,13.03
2019-03-19T03:45:45.018Z,8.67
2019-03-19T03:48:15.794Z,9.90
2019-03-19T03:50:46.634Z,12.77
2019-03-19T03:53:17.442Z,13.90
2019-03-19T03:55:49.200Z,12.17
2019-03-19T03:58:20.042Z,15.80
2019-03-19T04:00:50.861Z,12.13
2019-03-19T04:03:21.746Z,19.90
2019-03-19T04:05:54.164Z,19.30
2019-03-19T04:08:25.180Z,18.27
2019-03-19T04:10:55.952Z,18.60
2019-03-19T04:13:26.916Z,16.60
2019-03-19T04:15:58.301Z,18.90
2019-03-19T04:18:29.160Z,19.83
2019-03-19T04:21:01.813Z,22.80
2019-03-19T04:23:32.678Z,18.37
2019-03-19T04:26:03.425Z,16.13
2019-03-19T04:28:34.181Z,13.00
2019-03-19T04:31:05.038Z,17.40
2019-03-19T04:33:35.883Z,9.63
2019-03-19T04:36:06.642Z,12.70
2019-03-19T04:38:37.459Z,12.43
2019-03-19T04:41:08.224Z,10.37
2019-03-19T04:43:39.159Z,10.17
2019-03-19T04:46:09.932Z,16.77
2019-03-19T04:48:40.732Z,13.83
2019-03-19T04:51:11.554Z,9.27
2019-03-19T04:53:42.361Z,14.77
2019-03-19T04:56:13.789Z,12.40
2019-03-19T04:58:44.595Z,13.90
2019-03-19T05:01:15.390Z,10.07
2019-03-19T05:03:46.260Z,9.93
2019-03-19T05:06:17.121Z,13.30
2019-03-19T05:08:47.920Z,12.67
2019-03-19T05:11:18.725Z,14.93
2019-03-19T05:13:49.719Z,11.37
2019-03-19T05:16:23.075Z,12.37
2019-03-19T05:18:55.078Z,11.63
2019-03-19T05:21:25.902Z,12.00
2019-03-19T05:23:57.972Z,9.37
2019-03-19T05:26:29.715Z,9.73
2019-03-19T05:29:00.516Z,12.60
2019-03-19T05:31:31.299Z,11.43
2019-03-19T05:34:02.067Z,10.87
2019-03-19T05:36:32.856Z,12.20
2019-03-19T05:39:04.466Z,13.70
2019-03-19T05:41:35.533Z,12.40
2019-03-19T05:44:06.446Z,8.17
2019-03-19T05:46:37.251Z,13.03
2019-03-19T05:49:08.203Z,10.20
2019-03-19T05:51:38.992Z,20.30
2019-03-19T05:54:09.781Z,13.90
2019-03-19T05:56:40.809Z,17.67
2019-03-19T05:59:11.682Z,11.57
2019-03-19T06:01:42.549Z,8.30
2019-03-19T06:04:13.362Z,13.77
2019-03-19T06:06:44.136Z,13.27
2019-03-19T06:09:14.932Z,10.20
2019-03-19T06:11:45.748Z,14.40
2019-03-19T06:14:16.687Z,17.67
2019-03-19T06:16:47.543Z,21.23
2019-03-19T06:19:20.390Z,18.00
2019-03-19T06:21:51.197Z,11.50
2019-03-19T06:24:22.068Z,15.53
2019-03-19T06:26:52.979Z,15.43
2019-03-19T06:29:25.576Z,20.40
2019-03-19T06:31:56.499Z,21.63
2019-03-19T06:34:27.367Z,15.57
2019-03-19T06:36:58.244Z,15.63
2019-03-19T06:39:30.936Z,32.80
2019-03-19T06:42:01.724Z,41.87
2019-03-19T06:44:34.323Z,35.43
2019-03-19T06:47:05.377Z,22.53
2019-03-19T06:49:36.236Z,20.90
2019-03-19T06:52:07.066Z,28.63
2019-03-19T06:54:37.947Z,31.97
2019-03-19T06:57:09.813Z,13.33
2019-03-19T06:59:40.729Z,21.00
2019-03-19T07:02:13.298Z,15.63
2019-03-19T07:04:44.088Z,24.07
2019-03-19T07:07:14.871Z,18.07
2019-03-19T07:09:45.642Z,18.33
2019-03-19T07:12:16.418Z,12.33
2019-03-19T07:14:48.385Z,18.83
2019-03-19T07:17:19.208Z,16.77
2019-03-19T07:19:50.199Z,14.53
2019-03-19T07:22:21.178Z,20.00
2019-03-19T07:24:52.275Z,11.90
2019-03-19T07:27:23.088Z,19.63
2019-03-19T07:29:53.947Z,16.67
2019-03-19T07:32:24.834Z,21.23
2019-03-19T07:34:55.805Z,25.97
2019-03-19T07:37:26.597Z,20.23
2019-03-19T07:39:57.508Z,16.53
2019-03-19T07:42:29.339Z,15.90
2019-03-19T07:45:00.390Z,18.27
2019-03-19T07:47:31.249Z,16.50
2019-03-19T07:50:02.155Z,15.50
2019-03-19T07:52:33.035Z,21.83
2019-03-19T07:55:03.951Z,20.53
2019-03-19T07:57:35.367Z,15.10
2019-03-19T08:00:07.227Z,11.23
2019-03-19T08:02:38.049Z,15.20
2019-03-19T08:05:09.870Z,15.90
2019-03-19T08:07:40.671Z,19.37
2019-03-19T08:10:12.878Z,15.17
2019-03-19T08:12:43.831Z,20.10
2019-03-19T08:15:14.625Z,19.33
2019-03-19T08:17:45.591Z,22.67
2019-03-19T08:20:17.421Z,14.27
2019-03-19T08:22:49.349Z,18.00
2019-03-19T08:25:20.287Z,15.67
2019-03-19T08:27:51.133Z,18.77
2019-03-19T08:30:24.362Z,18.60
2019-03-19T08:32:54.429Z,15.17
2019-03-19T08:35:25.242Z,13.90
2019-03-19T08:37:56.032Z,15.87
2019-03-19T08:40:26.936Z,14.83
2019-03-19T08:42:58.355Z,12.30
2019-03-19T08:45:29.361Z,16.17
2019-03-19T08:48:00.258Z,11.83
2019-03-19T08:50:31.145Z,19.10
2019-03-19T08:53:02.026Z,13.40
2019-03-19T08:55:32.851Z,17.80
2019-03-19T08:58:05.101Z,15.40
2019-03-19T09:00:35.936Z,13.50
2019-03-19T09:03:06.959Z,14.83
2019-03-19T09:05:37.881Z,14.00
2019-03-19T09:08:08.686Z,13.03
2019-03-19T09:10:39.563Z,10.40
2019-03-19T09:13:10.474Z,12.30
2019-03-19T09:15:42.457Z,15.70
2019-03-19T09:18:13.351Z,12.60
2019-03-19T09:20:45.111Z,10.23
2019-03-19T09:23:16.036Z,10.20
2019-03-19T09:25:46.944Z,12.53
2019-03-19T09:28:17.705Z,7.60
2019-03-19T09:30:48.622Z,12.80
2019-03-19T09:33:19.593Z,7.90
2019-03-19T09:35:50.557Z,10.10
2019-03-19T09:38:21.308Z,10.90
2019-03-19T09:40:53.191Z,11.50
2019-03-19T09:43:23.958Z,10.80
2019-03-19T09:45:54.761Z,7.87
2019-03-19T09:48:25.587Z,8.30
2019-03-19T09:50:56.366Z,7.03
2019-03-19T09:53:28.198Z,9.00
2019-03-19T09:55:59.062Z,6.77
2019-03-19T09:58:30.092Z,7.67
2019-03-19T10:01:00.908Z,10.33
2019-03-19T10:03:31.688Z,8.67
2019-03-19T10:06:13.608Z,8.87
2019-03-19T10:08:34.991Z,6.30
2019-03-19T10:11:05.861Z,6.00
2019-03-19T10:13:36.637Z,6.40
2019-03-19T10:16:07.816Z,5.70
2019-03-19T10:18:38.703Z,6.60
2019-03-19T10:21:09.677Z,11.07
2019-03-19T10:23:42.954Z,12.47
2019-03-19T10:26:14.074Z,6.10
2019-03-19T10:28:44.861Z,7.20
2019-03-19T10:31:15.630Z,10.57
2019-03-19T10:33:46.454Z,8.73
2019-03-19T10:36:17.226Z,8.43
2019-03-19T10:38:48.042Z,7.03
2019-03-19T10:41:18.995Z,11.13
2019-03-19T10:43:49.759Z,10.80
2019-03-19T10:46:20.712Z,9.10
2019-03-19T10:48:55.553Z,6.67
2019-03-19T10:51:28.380Z,4.53
2019-03-19T10:53:59.157Z,9.23
2019-03-19T10:56:30.007Z,8.50
2019-03-19T10:59:01.155Z,5.30
2019-03-19T11:01:32.118Z,10.67
2019-03-19T11:04:03.181Z,6.07
2019-03-19T11:06:34.018Z,5.50
2019-03-19T11:09:07.451Z,8.70
2019-03-19T11:11:38.261Z,7.50
2019-03-19T11:14:09.046Z,6.17
2019-03-19T11:16:40.134Z,6.40
2019-03-19T11:19:11.030Z,7.85
2019-03-19T11:21:42.767Z,6.70
2019-03-19T11:24:13.559Z,3.23
2019-03-19T11:26:44.430Z,6.27
2019-03-19T11:29:15.361Z,4.90
2019-03-19T11:31:46.150Z,7.30
2019-03-19T11:34:17.942Z,6.63
2019-03-19T11:36:57.826Z,6.07
2019-03-19T11:39:25.304Z,5.13
2019-03-19T11:41:56.218Z,5.43
2019-03-19T11:44:27.163Z,8.43
2019-03-19T11:46:57.979Z,10.33
2019-03-19T11:49:28.851Z,9.63
2019-03-19T11:51:59.696Z,4.33
2019-03-19T11:54:30.622Z,8.23
2019-03-19T11:57:01.398Z,6.30
2019-03-19T11:59:32.295Z,4.60
2019-03-19T12:02:03.248Z,6.67
2019-03-19T12:04:34.129Z,4.83
2019-03-19T12:07:05.030Z,6.00
2019-03-19T12:09:35.902Z,6.53
2019-03-19T12:12:06.760Z,6.67
2019-03-19T12:14:39.093Z,10.87
2019-03-19T12:17:09.914Z,9.60
2019-03-19T12:19:40.834Z,6.17
2019-03-19T12:22:14.266Z,6.17
2019-03-19T12:24:45.079Z,5.97
2019-03-19T12:27:15.934Z,6.90
2019-03-19T12:29:46.834Z,6.67
2019-03-19T12:32:19.200Z,9.07
2019-03-19T12:34:50.000Z,6.60
2019-03-19T12:37:20.900Z,7.27
2019-03-19T12:42:21.343Z,5.30
2019-03-19T12:44:53.236Z,4.73
2019-03-19T12:47:24.045Z,5.13
2019-03-19T12:49:54.826Z,7.97
2019-03-19T12:52:25.886Z,8.65
2019-03-19T12:54:56.735Z,9.87
2019-03-19T12:57:27.592Z,4.13
2019-03-19T12:59:58.542Z,8.27
2019-03-19T13:02:29.396Z,7.43
2019-03-19T13:05:00.345Z,7.37
2019-03-19T13:07:31.250Z,10.70
2019-03-19T13:10:03.391Z,9.47
2019-03-19T13:12:35.398Z,5.43
2019-03-19T13:15:06.462Z,4.95
2019-03-19T13:17:37.315Z,10.63
2019-03-19T13:20:09.442Z,7.53
2019-03-19T13:22:40.343Z,5.45
2019-03-19T13:25:13.436Z,7.07
2019-03-19T13:27:44.313Z,7.37
2019-03-19T13:30:17.610Z,3.83
2019-03-19T13:32:48.547Z,5.93
2019-03-19T13:35:19.352Z,4.95
2019-03-19T13:37:50.327Z,5.75
2019-03-19T13:40:21.243Z,8.60
2019-03-19T13:45:21.859Z,6.00
2019-03-19T13:47:54.499Z,6.47
2019-03-19T13:55:26.303Z,5.17
2019-03-19T13:57:57.262Z,3.30
2019-03-19T14:00:28.213Z,9.23
2019-03-19T14:02:59.430Z,6.10
2019-03-19T14:05:30.351Z,5.00
2019-03-19T14:08:01.200Z,5.93
2019-03-19T14:10:32.018Z,3.97
2019-03-19T14:13:04.492Z,4.00
2019-03-19T14:15:35.458Z,3.70
2019-03-19T14:18:06.470Z,5.70
2019-03-19T14:20:37.315Z,7.10
2019-03-19T14:33:07.575Z,3.63
2019-03-19T14:35:38.437Z,8.75
2019-03-19T14:38:09.386Z,4.75
2019-03-19T14:40:40.201Z,7.07
2019-03-19T14:43:11.065Z,9.08
2019-03-19T14:45:42.171Z,7.53
2019-03-19T14:48:12.956Z,5.07
2019-03-19T14:50:43.844Z,4.87
2019-03-19T14:53:14.623Z,5.03
2019-03-19T14:55:47.916Z,6.67
2019-03-19T14:58:18.730Z,5.47
2019-03-19T15:00:50.080Z,6.93
2019-03-19T15:03:22.092Z,7.23
2019-03-19T15:05:53.067Z,7.50
2019-03-19T15:08:25.505Z,5.67
2019-03-19T15:10:56.540Z,7.27
2019-03-19T15:13:27.331Z,7.13
2019-03-19T15:15:58.194Z,5.20
2019-03-19T15:18:29.135Z,10.03
2019-03-19T15:20:59.985Z,6.73
2019-03-19T15:23:34.715Z,7.10
2019-03-19T15:26:06.951Z,5.80
2019-03-19T15:28:38.003Z,10.93
2019-03-19T15:31:09.060Z,6.40
2019-03-19T15:33:39.998Z,9.70
2019-03-19T15:36:10.891Z,8.17
2019-03-19T15:38:42.348Z,10.37
2019-03-19T15:41:13.301Z,7.03
2019-03-19T15:43:44.156Z,11.67
2019-03-19T15:46:14.941Z,7.87
2019-03-19T15:48:45.815Z,10.30
2019-03-19T15:51:16.697Z,5.67
2019-03-19T15:53:47.697Z,7.07
2019-03-19T15:56:18.669Z,13.47
2019-03-19T15:58:49.655Z,9.73
2019-03-19T16:01:21.589Z,9.47
2019-03-19T16:03:53.375Z,10.13
2019-03-19T16:06:24.197Z,9.50
2019-03-19T16:08:55.011Z,7.80
2019-03-19T16:11:25.881Z,9.50
2019-03-19T16:13:56.781Z,9.90
2019-03-19T16:16:27.571Z,7.67
2019-03-19T16:18:58.491Z,10.27
2019-03-19T16:21:29.425Z,6.77
2019-03-19T16:24:00.460Z,9.57
2019-03-19T16:26:31.343Z,6.10
2019-03-19T16:29:02.287Z,7.90
2019-03-19T16:31:34.114Z,8.17
2019-03-19T16:34:05.973Z,7.67
2019-03-19T16:36:38.007Z,5.47
2019-03-19T16:39:08.899Z,4.17
2019-03-19T16:41:40.718Z,6.87
2019-03-19T16:44:11.570Z,5.77
2019-03-19T16:46:42.544Z,9.20
2019-03-19T16:49:13.330Z,7.10
2019-03-19T16:51:45.280Z,6.87
2019-03-19T16:54:16.178Z,6.40
2019-03-19T16:56:47.073Z,9.93
2019-03-19T16:59:18.038Z,8.57
2019-03-19T17:02:01.087Z,6.77
2019-03-19T17:04:23.587Z,5.87
2019-03-19T17:06:54.538Z,6.53
2019-03-19T17:09:25.438Z,7.00
2019-03-19T17:11:56.256Z,8.77
2019-03-19T17:14:27.184Z,8.43
2019-03-19T17:16:58.031Z,8.37
2019-03-19T17:19:29.048Z,6.60
2019-03-19T17:21:59.933Z,10.73
2019-03-19T17:24:31.734Z,7.80
2019-03-19T17:27:03.506Z,6.27
2019-03-19T17:29:34.348Z,9.53
2019-03-19T17:32:12.900Z,7.93
2019-03-19T17:34:39.152Z,7.97
2019-03-19T17:37:10.109Z,8.20
2019-03-19T17:39:41.012Z,8.77
2019-03-19T17:42:11.871Z,7.33
2019-03-19T17:44:42.669Z,9.17
2019-03-19T17:47:13.682Z,8.53
2019-03-19T17:49:46.164Z,11.70
2019-03-19T17:52:17.110Z,9.63
2019-03-19T17:54:48.148Z,12.17
2019-03-19T17:57:19.047Z,11.07
2019-03-19T17:59:50.069Z,9.30
2019-03-19T18:02:24.140Z,8.90
2019-03-19T18:04:55.247Z,6.97
2019-03-19T18:07:26.104Z,8.33
2019-03-19T18:09:56.912Z,9.70
2019-03-19T18:12:28.775Z,5.97
2019-03-19T18:14:59.551Z,8.33
2019-03-19T18:17:30.358Z,7.33
2019-03-19T18:20:01.342Z,10.77
2019-03-19T18:22:34.396Z,7.50
2019-03-19T18:25:06.788Z,6.07
2019-03-19T18:27:37.976Z,10.27
2019-03-19T18:30:10.922Z,8.20
2019-03-19T18:32:41.728Z,10.77
2019-03-19T18:35:13.818Z,15.07
2019-03-19T18:37:44.679Z,12.87
2019-03-19T18:40:16.174Z,14.97
2019-03-19T18:42:47.127Z,13.90
2019-03-19T18:45:18.067Z,14.13
2019-03-19T18:47:49.084Z,10.23
2019-03-19T18:50:19.983Z,14.10
2019-03-19T18:52:51.021Z,17.67
2019-03-19T18:55:21.995Z,9.90
2019-03-19T18:57:52.958Z,13.70
2019-03-19T19:00:23.902Z,9.53
2019-03-19T19:02:55.472Z,12.60
2019-03-19T19:05:26.371Z,11.90
2019-03-19T19:07:57.225Z,12.67
2019-03-19T19:10:28.291Z,9.60
2019-03-19T19:13:01.821Z,11.70
2019-03-19T19:15:32.754Z,9.63
2019-03-19T19:18:03.592Z,8.83
2019-03-19T19:20:34.561Z,14.57
2019-03-19T19:23:05.458Z,9.60
2019-03-19T19:25:36.809Z,12.93
2019-03-19T19:28:07.794Z,11.60
2019-03-19T19:30:38.882Z,10.93
2019-03-19T19:33:10.019Z,9.20
2019-03-19T19:41:41.606Z,11.07
2019-03-19T19:44:12.642Z,9.40
2019-03-19T19:46:44.590Z,10.70
2019-03-19T19:49:17.113Z,5.97
2019-03-19T19:51:49.152Z,10.90
2019-03-19T19:54:21.124Z,8.23
2019-03-19T19:56:52.977Z,7.13
2019-03-19T19:59:23.913Z,8.27
2019-03-19T20:01:54.866Z,7.80
2019-03-19T20:04:25.845Z,11.40
2019-03-19T20:06:57.887Z,9.70
2019-03-19T20:09:28.924Z,10.47
2019-03-19T20:12:00.091Z,8.67
2019-03-19T20:14:31.091Z,12.93
2019-03-19T20:17:02.150Z,13.00
2019-03-19T20:19:33.190Z,10.50
2019-03-19T20:22:04.254Z,9.43
2019-03-19T20:24:35.076Z,10.83
2019-03-19T20:27:06.912Z,11.83
2019-03-19T20:29:37.769Z,9.50
2019-03-19T20:32:08.662Z,9.47
2019-03-19T20:34:39.554Z,8.97
2019-03-19T20:37:11.976Z,11.07
2019-03-19T20:39:42.937Z,9.00
2019-03-19T20:42:14.013Z,5.40
2019-03-19T20:44:44.963Z,7.67
2019-03-19T20:47:15.867Z,6.00
2019-03-19T20:49:47.994Z,8.67
2019-03-19T20:52:19.170Z,6.47
2019-03-19T20:54:50.195Z,9.27
2019-03-19T20:57:21.259Z,7.23
2019-03-19T20:59:52.163Z,7.00
2019-03-19T21:02:22.976Z,11.93
2019-03-19T21:04:56.159Z,11.73
2019-03-19T21:07:27.057Z,9.60
2019-03-19T21:09:58.067Z,7.07
2019-03-19T21:12:29.094Z,7.67
2019-03-19T21:15:00.314Z,11.47
2019-03-19T21:17:31.316Z,8.73
2019-03-19T21:20:02.299Z,10.23
2019-03-19T21:22:33.259Z,13.13
2019-03-19T21:25:05.295Z,21.20
2019-03-19T21:27:36.814Z,18.10
2019-03-19T21:30:07.720Z,13.40
2019-03-19T21:32:40.465Z,14.53
2019-03-19T21:35:11.621Z,16.10
2019-03-19T21:37:42.612Z,8.93
2019-03-19T21:40:15.206Z,9.17
2019-03-19T21:42:47.205Z,10.67
2019-03-19T21:45:18.039Z,9.47
2019-03-19T21:47:48.863Z,7.50
2019-03-19T21:50:19.842Z,5.93
2019-03-19T21:52:50.976Z,8.90
2019-03-19T21:55:21.969Z,9.33
2019-03-19T21:57:52.831Z,9.33
2019-03-19T22:00:23.922Z,9.70
2019-03-19T22:02:54.824Z,12.20
2019-03-19T22:05:25.621Z,8.77
2019-03-19T22:07:56.461Z,12.97
2019-03-19T22:10:32.969Z,9.47
2019-03-19T22:13:05.593Z,11.00
2019-03-19T22:15:36.387Z,10.23
2019-03-19T22:18:07.183Z,10.67
2019-03-19T22:20:38.004Z,8.33
2019-03-19T22:23:09.040Z,13.70
2019-03-19T22:25:39.941Z,11.77
2019-03-19T22:28:11.890Z,15.13
2019-03-19T22:30:42.799Z,14.20
2019-03-19T22:33:14.058Z,17.10
2019-03-19T22:35:44.950Z,14.53
2019-03-19T22:38:15.709Z,16.17
2019-03-19T22:40:46.506Z,16.10
2019-03-19T22:43:17.282Z,15.33
2019-03-19T22:45:48.518Z,12.20
2019-03-19T22:48:19.369Z,13.37
2019-03-19T22:50:50.317Z,13.47
2019-03-19T22:53:21.092Z,12.67
2019-03-19T22:55:51.947Z,12.43
2019-03-19T22:58:22.747Z,9.37
2019-03-19T23:00:54.139Z,13.23
2019-03-19T23:03:25.092Z,21.63
2019-03-19T23:05:56.945Z,18.57
2019-03-19T23:08:27.814Z,23.47
2019-03-19T23:10:58.702Z,21.40
2019-03-19T23:13:29.766Z,19.40
2019-03-19T23:16:00.531Z,19.67
2019-03-19T23:18:31.331Z,17.20
2019-03-19T23:21:02.127Z,16.20
2019-03-19T23:23:32.992Z,14.67
2019-03-19T23:26:03.751Z,15.83
2019-03-19T23:28:35.028Z,14.43
2019-03-19T23:31:05.993Z,17.63
2019-03-19T23:33:37.023Z,15.00
2019-03-19T23:36:07.969Z,14.60
2019-03-19T23:38:38.745Z,13.43
2019-03-19T23:41:10.619Z,13.97
2019-03-19T23:43:41.489Z,13.10
2019-03-19T23:46:12.237Z,16.90
2019-03-19T23:48:43.108Z,16.73
2019-03-19T23:51:13.947Z,15.33
2019-03-19T23:53:44.723Z,12.20
2019-03-19T23:56:15.611Z,17.50
2019-03-19T23:58:46.482Z,27.00
